Time;durP1;ratioP1;P1;durP2;ratioP2;P2;SDS_P1;SDS_P2;PMS_P1;PMS_P2;Temp;Humidity;BMP_temperature;BMP_pressure;BME280_temperature;BME280_humidity;BME280_pressure;Samples;Min_cycle;Max_cycle;Signal;HPM_P1;HPM_P2
2023/08/24 00:00:10;;;;;;;;;11.25;11.25;;;;;28.22;48.43;100989.28;5077275;27;45573;-62
2023/08/24 00:02:37;;;;;;;;;12.50;12.25;;;;;28.11;48.46;100965.75;5077426;28;45365;-61
2023/08/24 00:05:03;;;;;;;;;12.50;11.75;;;;;28.05;48.52;100969.75;5076950;28;45425;-62
2023/08/24 00:07:29;;;;;;;;;11.25;10.25;;;;;28.10;48.51;100983.75;5078635;27;45384;-62
2023/08/24 00:09:54;;;;;;;;;12.00;10.00;;;;;28.13;48.73;100983.53;5076779;27;45414;-61
2023/08/24 00:12:20;;;;;;;;;12.25;11.50;;;;;28.02;48.73;100963.69;5076671;28;45379;-61
2023/08/24 00:14:45;;;;;;;;;11.75;11.75;;;;;28.01;48.92;100961.97;5076342;27;45494;-62
2023/08/24 00:17:11;;;;;;;;;11.25;10.00;;;;;28.00;48.90;100966.50;5073158;28;45585;-62
2023/08/24 00:19:36;;;;;;;;;14.50;11.50;;;;;27.98;48.84;100959.50;5071529;27;45266;-62
2023/08/24 00:22:02;;;;;;;;;14.50;13.00;;;;;27.95;48.95;100962.38;5072784;28;45589;-62
2023/08/24 00:24:27;;;;;;;;;15.00;12.00;;;;;27.90;49.05;100949.22;5076924;28;45631;-62
2023/08/24 00:26:53;;;;;;;;;13.50;10.75;;;;;27.92;49.11;100956.22;5076053;28;45400;-63
2023/08/24 00:29:18;;;;;;;;;12.00;10.50;;;;;27.91;48.99;100951.81;5076765;28;46137;-61
2023/08/24 00:31:51;;;;;;;;;13.00;11.25;;;;;27.88;49.28;100946.66;5076780;28;45463;-61
2023/08/24 00:34:17;;;;;;;;;10.50;10.50;;;;;27.77;49.01;100935.72;5076599;27;45507;-63
2023/08/24 00:36:42;;;;;;;;;11.50;11.50;;;;;27.90;49.49;100965.38;5078583;28;45428;-63
2023/08/24 00:39:08;;;;;;;;;12.25;11.25;;;;;27.86;49.33;100964.72;5076838;27;45623;-62
2023/08/24 00:41:33;;;;;;;;;11.50;10.75;;;;;27.84;49.31;100966.66;5077286;27;45254;-63
2023/08/24 00:43:59;;;;;;;;;12.75;12.00;;;;;27.90;49.12;100971.66;5077094;27;45230;-62
2023/08/24 00:46:29;;;;;;;;;11.50;11.00;;;;;27.85;49.38;100973.75;5076059;28;45379;-63
2023/08/24 00:48:57;;;;;;;;;12.00;11.75;;;;;27.82;49.55;100968.56;5076718;27;46312;-62
2023/08/24 00:51:24;;;;;;;;;9.75;9.75;;;;;27.82;49.64;100973.94;5076365;27;45319;-62
2023/08/24 00:53:50;;;;;;;;;12.00;10.50;;;;;27.77;49.72;100969.84;5078155;28;45503;-62
2023/08/24 00:56:16;;;;;;;;;10.75;10.75;;;;;27.73;49.86;100962.91;5077512;27;45531;-63
2023/08/24 00:58:44;;;;;;;;;13.25;12.25;;;;;27.74;49.73;100970.00;5076753;28;45957;-61
2023/08/24 01:01:09;;;;;;;;;13.25;13.25;;;;;27.80;49.65;100970.47;5059220;28;45423;-62
2023/08/24 01:03:36;;;;;;;;;14.25;13.25;;;;;27.81;49.06;100977.59;5077944;27;45527;-61
2023/08/24 01:06:01;;;;;;;;;12.50;12.25;;;;;27.80;49.13;100966.94;5078266;27;45476;-62
2023/08/24 01:08:28;;;;;;;;;10.50;10.50;;;;;27.72;49.50;100971.97;5078166;27;45460;-61
2023/08/24 01:11:21;;;;;;;;;10.50;10.50;;;;;27.65;49.70;100971.50;5077585;27;45352;-64
2023/08/24 01:14:22;;;;;;;;;11.25;11.25;;;;;27.53;49.67;100967.78;5068447;28;45459;-63
2023/08/24 01:16:56;;;;;;;;;13.50;11.25;;;;;27.57;49.84;100966.59;5074489;28;45362;-61
2023/08/24 01:19:43;;;;;;;;;12.75;11.00;;;;;27.52;49.98;100963.38;5078335;27;46232;-62
2023/08/24 01:22:27;;;;;;;;;9.00;9.00;;;;;27.55;49.96;100967.69;5077561;27;45508;-61
2023/08/24 01:25:06;;;;;;;;;10.50;10.50;;;;;27.58;50.12;100965.66;5076472;27;45897;-61
2023/08/24 01:27:34;;;;;;;;;12.25;10.50;;;;;27.48;50.26;100960.03;5076328;27;45385;-63
2023/08/24 01:30:07;;;;;;;;;11.25;8.25;;;;;27.53;50.03;100957.03;5078587;27;46522;-61
2023/08/24 01:32:34;;;;;;;;;10.75;9.00;;;;;27.50;50.18;100943.75;5112650;27;46208;-62
2023/08/24 01:35:07;;;;;;;;;10.50;8.50;;;;;27.55;49.99;100949.72;5079883;28;45418;-62
2023/08/24 01:37:36;;;;;;;;;9.00;9.00;;;;;27.61;49.98;100952.00;5080263;28;45386;-62
2023/08/24 01:40:22;;;;;;;;;14.50;12.50;;;;;27.59;49.88;100942.31;5077872;28;45448;-62
2023/08/24 01:42:55;;;;;;;;;11.75;11.25;;;;;27.58;49.67;100944.13;5078564;27;45523;-61
2023/08/24 01:45:24;;;;;;;;;9.75;9.75;;;;;27.53;50.01;100946.28;5079277;27;46468;-62
2023/08/24 01:47:52;;;;;;;;;8.25;8.25;;;;;27.43;49.90;100926.31;5076510;27;45536;-62
2023/08/24 01:50:21;;;;;;;;;10.75;8.50;;;;;27.54;50.06;100937.22;5066750;27;45566;-61
2023/08/24 01:53:37;;;;;;;;;9.75;9.75;;;;;27.49;50.25;100931.28;5073679;28;45501;-61
2023/08/24 01:56:13;;;;;;;;;11.00;9.25;;;;;27.53;49.78;100922.06;5112264;27;45481;-62
2023/08/24 01:58:39;;;;;;;;;10.50;10.50;;;;;27.49;50.03;100923.22;5080018;27;45318;-61
2023/08/24 02:01:05;;;;;;;;;13.00;11.00;;;;;27.38;50.07;100923.06;5079003;27;45571;-63
2023/08/24 02:03:31;;;;;;;;;12.75;10.25;;;;;27.39;49.98;100917.59;5061505;27;45433;-62
2023/08/24 02:05:57;;;;;;;;;10.75;9.75;;;;;27.39;49.74;100922.97;5058925;27;45456;-62
2023/08/24 02:08:22;;;;;;;;;12.50;11.00;;;;;27.39;49.73;100914.91;5074343;28;46172;-64
2023/08/24 02:10:48;;;;;;;;;10.25;10.25;;;;;27.28;50.00;100902.13;5078547;27;45346;-62
2023/08/24 02:13:13;;;;;;;;;15.75;12.00;;;;;27.39;50.11;100914.91;5079546;28;45328;-62
2023/08/24 02:15:39;;;;;;;;;9.00;8.75;;;;;27.39;49.99;100912.22;5080250;27;45472;-65
2023/08/24 02:18:06;;;;;;;;;11.50;11.50;;;;;27.34;50.74;100906.28;5079346;27;45287;-66
2023/08/24 02:20:35;;;;;;;;;11.00;9.75;;;;;27.21;50.63;100897.28;5061007;27;45465;-64
2023/08/24 02:23:01;;;;;;;;;11.25;11.25;;;;;27.03;50.83;100892.09;5066521;28;45489;-61
2023/08/24 02:25:27;;;;;;;;;10.75;10.75;;;;;27.08;51.17;100908.78;5078896;27;45305;-67
2023/08/24 02:27:52;;;;;;;;;12.75;11.00;;;;;27.09;50.78;100901.59;5079802;27;45389;-62
2023/08/24 02:30:18;;;;;;;;;10.75;10.25;;;;;27.08;50.89;100898.03;5078514;27;46105;-64
2023/08/24 02:32:43;;;;;;;;;11.50;11.25;;;;;27.11;50.57;100888.06;5078013;27;45428;-67
2023/08/24 02:35:09;;;;;;;;;12.00;10.75;;;;;27.19;50.63;100894.72;5078870;27;45228;-66
2023/08/24 02:37:34;;;;;;;;;9.00;8.75;;;;;27.11;50.56;100890.75;5078383;28;45390;-62
2023/08/24 02:40:00;;;;;;;;;14.00;11.75;;;;;27.11;50.81;100891.59;5079697;28;45995;-63
2023/08/24 02:42:26;;;;;;;;;12.75;11.25;;;;;26.96;51.44;100873.78;5077756;27;45414;-66
2023/08/24 02:44:52;;;;;;;;;11.50;10.75;;;;;27.02;50.89;100878.75;5079395;27;45451;-62
2023/08/24 02:47:17;;;;;;;;;10.25;10.00;;;;;27.05;51.17;100876.75;5078969;27;45527;-63
2023/08/24 02:49:43;;;;;;;;;13.25;11.00;;;;;27.05;50.91;100875.84;5077842;27;45432;-62
2023/08/24 02:52:14;;;;;;;;;15.25;11.25;;;;;27.06;50.92;100874.91;5079470;28;45374;-61
2023/08/24 02:54:40;;;;;;;;;12.75;11.75;;;;;26.99;51.32;100870.91;5062350;27;45239;-61
2023/08/24 02:57:05;;;;;;;;;12.25;12.00;;;;;26.96;51.26;100871.09;5068928;28;45506;-63
2023/08/24 02:59:31;;;;;;;;;12.50;11.25;;;;;26.90;51.25;100868.81;5077235;28;47896;-62
2023/08/24 03:01:58;;;;;;;;;8.75;8.75;;;;;26.90;51.54;100863.44;5077950;27;45185;-61
2023/08/24 03:04:23;;;;;;;;;10.75;9.50;;;;;26.80;51.92;100855.94;5078029;27;45456;-62
2023/08/24 03:06:49;;;;;;;;;10.25;10.25;;;;;26.74;52.07;100863.53;5077905;28;45463;-62
2023/08/24 03:09:14;;;;;;;;;15.25;10.25;;;;;26.74;52.23;100856.38;5077628;28;45988;-60
2023/08/24 03:11:40;;;;;;;;;13.50;12.00;;;;;26.68;51.94;100843.31;5077933;27;45399;-62
2023/08/24 03:14:06;;;;;;;;;12.00;12.00;;;;;26.68;52.37;100845.13;5076823;27;45330;-62
2023/08/24 03:16:31;;;;;;;;;13.25;12.00;;;;;26.57;52.64;100841.28;5077644;27;45322;-61
2023/08/24 03:18:57;;;;;;;;;12.75;11.25;;;;;26.51;52.96;100830.06;5077318;27;45465;-61
2023/08/24 03:21:23;;;;;;;;;10.75;10.75;;;;;26.51;52.83;100840.81;5077344;27;45411;-60
2023/08/24 03:23:48;;;;;;;;;13.50;11.25;;;;;26.48;52.85;100841.88;5078445;27;45516;-64
2023/08/24 03:26:15;;;;;;;;;12.50;11.00;;;;;26.49;52.64;100830.16;5079558;27;45747;-62
2023/08/24 03:28:41;;;;;;;;;12.00;11.50;;;;;26.50;52.95;100839.06;5078022;27;45460;-62
2023/08/24 03:31:06;;;;;;;;;13.25;9.75;;;;;26.52;52.87;100838.00;5077683;27;45506;-62
2023/08/24 03:33:33;;;;;;;;;13.50;13.00;;;;;26.44;53.24;100832.28;5077028;27;45576;-63
2023/08/24 03:35:58;;;;;;;;;12.00;10.25;;;;;26.39;53.10;100842.44;5077729;27;45498;-63
2023/08/24 03:38:24;;;;;;;;;10.00;10.00;;;;;26.33;53.79;100834.75;5077201;27;46535;-63
2023/08/24 03:40:49;;;;;;;;;13.33;13.33;;;;;26.22;54.12;100836.28;5093626;27;45553;-64
2023/08/24 03:43:15;;;;;;;;;12.00;10.50;;;;;26.12;54.46;100832.44;5093997;27;45504;-64
2023/08/24 03:45:43;;;;;;;;;12.75;11.75;;;;;26.12;54.49;100831.56;5077432;27;45508;-64
2023/08/24 03:48:08;;;;;;;;;12.75;10.00;;;;;26.07;54.49;100844.41;5076611;27;45403;-63
2023/08/24 03:50:34;;;;;;;;;14.67;12.33;;;;;26.01;54.65;100841.16;5077129;27;45571;-64
2023/08/24 03:53:00;;;;;;;;;14.00;14.00;;;;;26.00;55.17;100842.09;5073022;27;45263;-62
2023/08/24 03:55:25;;;;;;;;;10.75;10.75;;;;;25.84;55.07;100830.56;5067687;28;45438;-63
2023/08/24 03:57:51;;;;;;;;;13.67;11.67;;;;;25.85;55.31;100839.47;5076745;27;45598;-66
2023/08/24 04:00:17;;;;;;;;;10.50;10.50;;;;;25.83;55.30;100833.31;5077327;27;45518;-62
2023/08/24 04:02:42;;;;;;;;;11.67;9.33;;;;;25.72;55.61;100818.75;5077275;28;45587;-66
2023/08/24 04:05:08;;;;;;;;;14.33;12.00;;;;;25.65;56.05;100829.91;5077271;27;45318;-67
2023/08/24 04:07:36;;;;;;;;;15.50;13.50;;;;;25.54;56.37;100830.56;5076915;27;45339;-67
2023/08/24 04:10:04;;;;;;;;;20.67;15.67;;;;;25.55;56.44;100827.78;5076808;27;45365;-68
2023/08/24 04:12:31;;;;;;;;;12.50;11.25;;;;;25.54;56.16;100835.94;5076745;27;46008;-62
2023/08/24 04:14:57;;;;;;;;;14.00;10.75;;;;;25.63;56.38;100837.19;5075724;28;45555;-63
2023/08/24 04:17:24;;;;;;;;;12.33;12.33;;;;;25.68;55.92;100832.44;5077893;28;46007;-63
2023/08/24 04:19:49;;;;;;;;;11.33;11.33;;;;;25.73;56.21;100824.97;5077303;28;45483;-62
2023/08/24 04:22:15;;;;;;;;;15.33;12.67;;;;;25.66;56.61;100812.88;5076560;28;45327;-61
2023/08/24 04:24:43;;;;;;;;;16.33;13.67;;;;;25.67;56.02;100819.97;5078516;27;45479;-62
2023/08/24 04:27:11;;;;;;;;;13.00;12.00;;;;;25.70;56.52;100819.78;5075571;28;46885;-62
2023/08/24 04:29:37;;;;;;;;;17.00;13.33;;;;;25.60;55.94;100809.63;5076969;27;45406;-62
2023/08/24 04:32:03;;;;;;;;;16.67;12.00;;;;;25.72;56.09;100816.06;5076687;27;45364;-61
2023/08/24 04:34:29;;;;;;;;;12.00;10.33;;;;;25.76;56.12;100814.91;5078670;27;45507;-62
2023/08/24 04:36:55;;;;;;;;;13.67;13.67;;;;;25.83;55.61;100815.41;5078110;27;45530;-63
2023/08/24 04:39:21;;;;;;;;;14.33;12.67;;;;;25.78;55.19;100799.59;5077724;27;45405;-61
2023/08/24 04:41:47;;;;;;;;;14.67;13.67;;;;;25.89;55.55;100798.09;5077116;28;45272;-62
2023/08/24 04:44:12;;;;;;;;;13.33;11.33;;;;;25.89;55.25;100792.72;5076603;28;45598;-61
2023/08/24 04:46:38;;;;;;;;;11.67;11.67;;;;;25.83;55.26;100795.78;5076251;27;46304;-61
2023/08/24 04:49:03;;;;;;;;;15.33;13.00;;;;;25.84;55.62;100787.63;5075597;28;45363;-62
2023/08/24 04:51:29;;;;;;;;;14.00;12.67;;;;;25.86;55.39;100788.41;5076746;27;45492;-62
2023/08/24 04:54:04;;;;;;;;;14.67;12.33;;;;;25.86;55.10;100784.84;5076932;28;45471;-61
2023/08/24 04:56:30;;;;;;;;;15.33;13.67;;;;;25.91;55.25;100783.66;5075069;27;46674;-64
2023/08/24 04:58:56;;;;;;;;;14.00;13.67;;;;;25.81;55.06;100764.50;5076530;27;45466;-63
2023/08/24 05:01:24;;;;;;;;;13.00;13.00;;;;;25.74;54.90;100781.94;5078244;27;45610;-61
2023/08/24 05:03:51;;;;;;;;;18.00;16.00;;;;;25.76;55.01;100793.44;5076413;28;45406;-61
2023/08/24 05:06:17;;;;;;;;;16.33;13.67;;;;;25.63;54.66;100795.16;5080008;27;46543;-63
2023/08/24 05:08:43;;;;;;;;;12.00;11.33;;;;;25.62;54.95;100793.41;5079827;27;45519;-62
2023/08/24 05:11:22;;;;;;;;;15.33;13.33;;;;;25.65;54.44;100797.72;5078847;27;45337;-63
2023/08/24 05:13:47;;;;;;;;;15.33;12.67;;;;;25.59;54.50;100785.56;5080313;27;45406;-62
2023/08/24 05:16:13;;;;;;;;;12.00;12.00;;;;;25.63;54.19;100791.59;5079232;27;45856;-62
2023/08/24 05:18:39;;;;;;;;;15.00;15.00;;;;;25.54;54.10;100779.63;5079425;27;45551;-62
2023/08/24 05:21:06;;;;;;;;;13.00;13.00;;;;;25.49;53.54;100790.63;5080602;28;45521;-61
2023/08/24 05:23:34;;;;;;;;;16.00;16.00;;;;;25.39;53.66;100787.63;5080162;27;45934;-62
2023/08/24 05:26:02;;;;;;;;;15.67;14.33;;;;;25.36;54.11;100793.13;5079424;27;45963;-62
2023/08/24 05:28:28;;;;;;;;;14.00;11.67;;;;;25.41;54.60;100800.91;5079518;27;45408;-61
2023/08/24 05:30:55;;;;;;;;;11.33;11.33;;;;;25.34;54.69;100802.22;5080008;27;45406;-63
2023/08/24 05:33:22;;;;;;;;;13.33;12.00;;;;;25.34;54.50;100811.16;5080050;27;45528;-61
2023/08/24 05:35:48;;;;;;;;;15.33;14.33;;;;;25.32;54.27;100799.66;5079372;27;45338;-61
2023/08/24 05:38:17;;;;;;;;;14.33;13.67;;;;;25.31;54.21;100803.28;5078123;28;45381;-62
2023/08/24 05:40:43;;;;;;;;;18.33;14.33;;;;;25.29;54.64;100801.66;5079087;27;45425;-64
2023/08/24 05:43:11;;;;;;;;;16.67;15.33;;;;;25.38;54.02;100795.75;5080182;28;45494;-62
2023/08/24 05:45:39;;;;;;;;;13.33;13.33;;;;;25.51;53.84;100801.25;5079168;28;45667;-63
2023/08/24 05:48:05;;;;;;;;;15.33;14.33;;;;;25.43;53.67;100779.38;5080345;27;45446;-62
2023/08/24 05:50:30;;;;;;;;;17.33;14.00;;;;;25.45;53.98;100775.66;5079407;27;45475;-63
2023/08/24 05:52:56;;;;;;;;;17.67;15.67;;;;;25.51;53.72;100777.97;5079462;28;45457;-61
2023/08/24 05:55:22;;;;;;;;;12.67;12.00;;;;;25.67;53.44;100777.03;5079080;27;46237;-62
2023/08/24 05:57:48;;;;;;;;;13.00;11.00;;;;;25.84;52.91;100755.44;5078838;27;45378;-62
2023/08/24 06:00:14;;;;;;;;;15.00;14.00;;;;;25.94;52.72;100756.63;5079235;27;45347;-61
2023/08/24 06:02:45;;;;;;;;;13.00;13.00;;;;;25.86;52.63;100734.75;5080028;27;45528;-62
2023/08/24 06:05:11;;;;;;;;;15.33;14.33;;;;;26.05;52.08;100757.75;5078691;28;47121;-65
2023/08/24 06:07:37;;;;;;;;;15.33;15.33;;;;;26.05;52.26;100750.56;5080441;27;45390;-62
2023/08/24 06:10:02;;;;;;;;;15.33;15.33;;;;;26.18;52.00;100764.09;5080218;27;45435;-62
2023/08/24 06:12:28;;;;;;;;;13.33;12.67;;;;;26.20;51.92;100762.19;5078690;28;45421;-62
2023/08/24 06:14:53;;;;;;;;;14.67;12.33;;;;;26.16;52.11;100766.00;5078939;28;46163;-65
2023/08/24 06:17:19;;;;;;;;;16.00;13.00;;;;;26.14;51.71;100759.88;5078029;28;45289;-66
2023/08/24 06:19:44;;;;;;;;;14.00;14.00;;;;;26.14;52.16;100765.25;5079532;27;45520;-66
2023/08/24 06:22:10;;;;;;;;;13.00;13.00;;;;;26.18;51.83;100770.31;5080194;28;45480;-67
2023/08/24 06:24:35;;;;;;;;;17.67;12.33;;;;;26.05;52.25;100761.31;5078470;27;46031;-66
2023/08/24 06:27:01;;;;;;;;;14.00;14.00;;;;;25.99;51.86;100756.34;5078908;27;45263;-66
2023/08/24 06:29:30;;;;;;;;;14.33;11.33;;;;;26.01;52.41;100782.13;5079579;27;45247;-65
2023/08/24 06:31:55;;;;;;;;;14.33;14.33;;;;;26.02;52.29;100772.25;5079401;27;45482;-63
2023/08/24 06:34:22;;;;;;;;;16.33;13.67;;;;;26.01;52.00;100774.06;5111467;27;46092;-64
2023/08/24 06:36:47;;;;;;;;;15.33;14.67;;;;;26.04;52.01;100774.84;5078724;27;45397;-63
2023/08/24 06:39:13;;;;;;;;;15.67;15.67;;;;;26.01;51.77;100760.66;5064099;28;45394;-61
2023/08/24 06:41:39;;;;;;;;;19.33;15.33;;;;;26.16;51.61;100769.56;5078480;27;45394;-63
2023/08/24 06:44:05;;;;;;;;;16.00;14.67;;;;;26.05;51.53;100749.72;5076007;27;45691;-62
2023/08/24 06:46:31;;;;;;;;;17.33;16.67;;;;;26.11;51.76;100763.63;5076969;27;45603;-62
2023/08/24 06:48:57;;;;;;;;;15.00;14.00;;;;;26.20;51.78;100760.34;5078254;27;45767;-62
2023/08/24 06:51:22;;;;;;;;;17.33;16.33;;;;;26.27;51.48;100744.72;5110937;27;45435;-61
2023/08/24 06:53:48;;;;;;;;;16.00;14.67;;;;;26.34;51.09;100747.88;5077750;28;46067;-62
2023/08/24 06:56:14;;;;;;;;;15.00;13.67;;;;;26.37;51.23;100747.69;5077594;27;45449;-62
2023/08/24 06:58:40;;;;;;;;;20.00;15.67;;;;;26.37;50.87;100748.53;5078167;27;45522;-62
2023/08/24 07:01:07;;;;;;;;;13.33;13.00;;;;;26.53;51.01;100747.53;5076907;28;45554;-62
2023/08/24 07:03:33;;;;;;;;;16.00;15.00;;;;;26.69;50.54;100758.19;5078754;27;45540;-61
2023/08/24 07:05:59;;;;;;;;;15.00;12.67;;;;;26.65;50.01;100758.41;5077728;27;45427;-61
2023/08/24 07:08:24;;;;;;;;;18.33;14.00;;;;;26.73;50.21;100767.78;5078392;28;45370;-64
2023/08/24 07:10:50;;;;;;;;;18.33;16.67;;;;;26.84;50.75;100759.91;5077958;27;45500;-63
2023/08/24 07:13:16;;;;;;;;;18.00;15.50;;;;;26.97;51.37;100760.78;5077664;27;46052;-63
2023/08/24 07:15:42;;;;;;;;;18.33;14.33;;;;;27.08;50.91;100758.25;5077419;27;45540;-61
2023/08/24 07:18:08;;;;;;;;;15.00;14.00;;;;;27.07;50.28;100753.84;5077461;27;45431;-60
2023/08/24 07:20:34;;;;;;;;;17.33;15.67;;;;;27.21;50.15;100758.31;5067247;27;45471;-60
2023/08/24 07:23:03;;;;;;;;;16.67;16.00;;;;;27.30;50.05;100734.47;5075019;28;46644;-62
2023/08/24 07:25:29;;;;;;;;;15.33;15.33;;;;;27.55;49.39;100750.66;5066630;27;45827;-62
2023/08/24 07:27:58;;;;;;;;;18.00;16.67;;;;;27.76;49.02;100742.03;5060130;27;45344;-61
2023/08/24 07:30:26;;;;;;;;;14.50;13.25;;;;;27.83;48.70;100743.38;5060180;28;45339;-62
2023/08/24 07:32:52;;;;;;;;;16.00;14.50;;;;;27.83;48.23;100735.28;5062633;27;45332;-61
2023/08/24 07:35:27;;;;;;;;;14.33;14.33;;;;;27.88;48.12;100722.38;5072848;28;45499;-61
2023/08/24 07:37:53;;;;;;;;;13.00;13.00;;;;;27.77;47.86;100706.09;5097014;27;45521;-61
2023/08/24 07:40:19;;;;;;;;;16.67;15.67;;;;;27.85;47.74;100726.13;5070729;27;45403;-62
2023/08/24 07:42:47;;;;;;;;;16.75;14.00;;;;;27.64;47.81;100708.78;5071973;28;46079;-60
2023/08/24 07:45:14;;;;;;;;;12.50;11.75;;;;;27.62;47.43;100713.41;5077647;28;45406;-60
2023/08/24 07:47:40;;;;;;;;;14.00;14.00;;;;;27.54;47.93;100708.56;5077415;27;46205;-62
2023/08/24 07:50:07;;;;;;;;;15.25;14.00;;;;;27.57;47.87;100721.78;5070370;27;45685;-61
2023/08/24 07:52:33;;;;;;;;;13.25;11.75;;;;;27.66;47.76;100721.16;5070210;28;46224;-61
2023/08/24 07:55:00;;;;;;;;;13.50;13.50;;;;;27.76;47.57;100713.28;5071067;27;45548;-61
2023/08/24 07:57:26;;;;;;;;;15.25;14.00;;;;;27.91;47.94;100706.03;5065172;27;45342;-62
2023/08/24 07:59:52;;;;;;;;;13.25;13.25;;;;;28.01;47.27;100701.69;5060054;27;45490;-63
2023/08/24 08:02:18;;;;;;;;;14.75;13.25;;;;;27.99;47.25;100694.69;5057901;27;46558;-61
2023/08/24 08:04:44;;;;;;;;;15.25;14.50;;;;;28.11;46.83;100683.03;5061229;27;45536;-61
2023/08/24 08:07:09;;;;;;;;;16.00;14.25;;;;;28.19;47.11;100682.47;5058942;27;45535;-61
2023/08/24 08:09:37;;;;;;;;;15.00;14.00;;;;;28.19;46.19;100677.09;5062350;28;45483;-64
2023/08/24 08:12:03;;;;;;;;;15.50;14.75;;;;;28.28;46.67;100690.75;5060358;27;46220;-61
2023/08/24 08:14:29;;;;;;;;;12.00;10.50;;;;;28.44;46.32;100689.63;5065226;27;45468;-61
2023/08/24 08:16:59;;;;;;;;;10.75;10.75;;;;;28.60;46.64;100698.34;5062696;27;45468;-61
2023/08/24 08:19:28;;;;;;;;;14.75;12.75;;;;;28.72;46.46;100699.25;5067085;28;45571;-64
2023/08/24 08:21:53;;;;;;;;;11.25;11.25;;;;;28.93;46.09;100702.16;5065254;27;45545;-62
2023/08/24 08:24:19;;;;;;;;;15.25;12.00;;;;;29.12;45.42;100697.13;5063999;28;45387;-62
2023/08/24 08:26:44;;;;;;;;;13.50;13.50;;;;;29.22;45.29;100699.13;5066275;27;45398;-64
2023/08/24 08:29:10;;;;;;;;;10.75;10.75;;;;;29.15;45.16;100682.53;5063644;28;45418;-62
2023/08/24 08:31:35;;;;;;;;;14.50;14.25;;;;;29.37;44.84;100725.75;5067774;27;45397;-63
2023/08/24 08:34:04;;;;;;;;;14.75;11.50;;;;;29.55;45.04;100715.38;5063406;27;45456;-62
2023/08/24 08:36:32;;;;;;;;;16.75;16.75;;;;;29.74;44.85;100717.53;5064914;28;45347;-61
2023/08/24 08:38:58;;;;;;;;;15.00;13.50;;;;;29.79;44.34;100717.16;5064626;27;45394;-63
2023/08/24 08:41:30;;;;;;;;;14.75;13.25;;;;;30.03;44.11;100735.94;5067897;27;46275;-64
2023/08/24 08:43:56;;;;;;;;;12.25;12.25;;;;;30.21;43.63;100728.22;5069087;27;45417;-64
2023/08/24 08:46:22;;;;;;;;;14.00;13.75;;;;;30.33;42.61;100723.69;5099734;27;45659;-62
2023/08/24 08:48:50;;;;;;;;;14.00;14.00;;;;;30.49;42.94;100729.53;5071280;27;45424;-63
2023/08/24 08:51:17;;;;;;;;;16.50;14.25;;;;;30.60;42.10;100737.63;5068751;27;45369;-63
2023/08/24 08:53:43;;;;;;;;;18.00;12.00;;;;;30.68;41.99;100734.28;5080150;27;45379;-62
2023/08/24 08:56:08;;;;;;;;;17.50;15.00;;;;;30.78;42.18;100737.09;5078615;28;45370;-63
2023/08/24 08:58:36;;;;;;;;;14.50;14.50;;;;;30.88;41.43;100732.69;5080026;27;45407;-62
2023/08/24 09:01:05;;;;;;;;;16.25;14.25;;;;;30.98;41.72;100730.06;5080711;27;45522;-64
2023/08/24 09:03:32;;;;;;;;;17.50;17.50;;;;;31.01;42.08;100717.16;5080058;27;45355;-63
2023/08/24 09:05:58;;;;;;;;;18.00;16.00;;;;;31.09;41.58;100704.81;5080141;27;45593;-63
2023/08/24 09:08:25;;;;;;;;;15.75;14.75;;;;;31.11;41.09;100692.88;5080209;27;45317;-62
2023/08/24 09:10:51;;;;;;;;;18.25;14.75;;;;;31.12;41.03;100674.78;5079652;28;46643;-63
2023/08/24 09:13:17;;;;;;;;;15.75;14.50;;;;;30.97;41.36;100666.16;5079557;27;45330;-64
2023/08/24 09:15:43;;;;;;;;;17.00;14.50;;;;;30.79;42.20;100666.66;5079936;27;45271;-65
2023/08/24 09:18:09;;;;;;;;;17.00;15.00;;;;;30.72;42.65;100694.34;5079724;27;45553;-63
2023/08/24 09:20:34;;;;;;;;;17.00;15.25;;;;;30.69;42.59;100698.16;5079693;27;45415;-65
2023/08/24 09:23:00;;;;;;;;;17.00;16.00;;;;;30.82;43.08;100715.09;5079710;27;45266;-63
2023/08/24 09:25:27;;;;;;;;;18.50;15.25;;;;;30.96;42.73;100710.38;5079398;27;45294;-63
2023/08/24 09:28:08;;;;;;;;;15.50;14.25;;;;;31.08;42.58;100722.88;5079672;27;45410;-63
2023/08/24 09:30:37;;;;;;;;;14.50;14.50;;;;;31.04;42.38;100716.03;5079940;27;45994;-64
2023/08/24 09:33:04;;;;;;;;;14.75;14.75;;;;;31.04;42.43;100730.41;5079445;28;45482;-64
2023/08/24 09:35:38;;;;;;;;;16.75;14.50;;;;;31.02;42.69;100748.59;5081212;27;45501;-63
2023/08/24 09:38:19;;;;;;;;;16.25;12.25;;;;;30.83;42.64;100759.22;5080030;27;45440;-64
2023/08/24 09:40:50;;;;;;;;;14.75;13.50;;;;;30.66;42.97;100763.31;5079105;27;45449;-63
2023/08/24 09:43:16;;;;;;;;;11.60;11.20;;;;;30.51;43.24;100753.75;5079093;27;45239;-64
2023/08/24 09:45:52;;;;;;;;;15.25;13.50;;;;;30.47;43.72;100771.19;5080041;27;45468;-62
2023/08/24 09:48:18;;;;;;;;;15.50;14.50;;;;;30.34;43.67;100769.47;5081013;27;45361;-62
2023/08/24 09:50:51;;;;;;;;;17.75;15.25;;;;;30.07;44.27;100766.28;5078933;27;45460;-63
2023/08/24 09:53:22;;;;;;;;;15.25;15.25;;;;;29.86;44.63;100764.28;5078763;27;45333;-63
2023/08/24 09:56:08;;;;;;;;;16.00;15.25;;;;;29.74;45.22;100768.81;5079201;28;45538;-66
2023/08/24 09:58:34;;;;;;;;;14.75;13.50;;;;;29.58;45.21;100763.69;5079430;27;45283;-65
2023/08/24 10:01:03;;;;;;;;;17.00;14.25;;;;;29.35;45.58;100753.81;5079906;28;45472;-68
2023/08/24 10:03:32;;;;;;;;;15.00;15.00;;;;;29.30;45.39;100770.34;5077588;28;45421;-66
2023/08/24 10:06:00;;;;;;;;;13.50;13.00;;;;;29.35;45.73;100778.09;5077859;28;45443;-68
2023/08/24 10:08:28;;;;;;;;;13.00;10.25;;;;;29.24;45.88;100781.63;5079084;27;45530;-66
2023/08/24 10:10:58;;;;;;;;;14.00;14.00;;;;;29.26;45.72;100785.09;5078817;27;45566;-67
2023/08/24 10:13:30;;;;;;;;;12.00;12.00;;;;;29.26;45.55;100774.28;5078436;27;45415;-70
2023/08/24 10:15:56;;;;;;;;;15.25;14.50;;;;;29.27;46.27;100775.16;5078864;27;45493;-63
2023/08/24 10:18:26;;;;;;;;;15.50;14.50;;;;;29.27;46.96;100767.91;5078551;27;45390;-64
2023/08/24 10:20:52;;;;;;;;;14.75;13.50;;;;;29.31;46.52;100761.31;5078522;27;46216;-64
2023/08/24 10:23:20;;;;;;;;;18.50;15.00;;;;;29.36;46.28;100748.31;5078567;27;45658;-62
2023/08/24 10:25:46;;;;;;;;;14.50;14.50;;;;;29.42;46.08;100743.44;5111668;27;45493;-63
2023/08/24 10:28:16;;;;;;;;;15.25;14.25;;;;;29.46;46.25;100743.06;5077335;28;45587;-62
2023/08/24 10:30:44;;;;;;;;;31.67;26.00;;;;;29.51;46.02;100754.38;5078305;28;45559;-63
2023/08/24 10:33:11;;;;;;;;;22.67;21.33;;;;;29.51;45.82;100750.81;5078223;27;45478;-64
2023/08/24 10:35:39;;;;;;;;;19.50;19.50;;;;;29.53;45.36;100746.16;5078844;28;45560;-62
2023/08/24 10:38:05;;;;;;;;;20.50;16.50;;;;;29.62;45.35;100752.69;5078959;27;45298;-62
2023/08/24 10:40:43;;;;;;;;;19.00;16.75;;;;;29.66;45.09;100770.34;5078292;27;46067;-62
2023/08/24 10:43:09;;;;;;;;;17.50;15.00;;;;;29.66;45.15;100768.53;5078632;27;45463;-62
2023/08/24 10:45:59;;;;;;;;;22.00;16.00;;;;;29.66;45.35;100789.25;5078809;28;45654;-62
2023/08/24 10:48:29;;;;;;;;;15.75;13.00;;;;;29.65;45.46;100818.06;5079899;27;45567;-61
2023/08/24 10:51:13;;;;;;;;;14.00;14.00;;;;;29.60;45.79;100825.66;5079142;27;45464;-64
2023/08/24 10:53:40;;;;;;;;;16.25;14.75;;;;;29.50;45.49;100820.13;5087198;27;45586;-61
2023/08/24 10:56:18;;;;;;;;;15.50;15.50;;;;;29.41;45.41;100828.91;5075173;27;45621;-61
2023/08/24 10:59:04;;;;;;;;;16.25;13.25;;;;;29.36;46.03;100823.84;5073468;28;45917;-61
2023/08/24 11:01:32;;;;;;;;;18.50;16.50;;;;;29.25;45.81;100822.94;5074362;28;45499;-66
2023/08/24 11:03:57;;;;;;;;;23.25;17.75;;;;;29.01;45.88;100799.50;5069005;27;45963;-65
2023/08/24 11:06:25;;;;;;;;;17.75;15.75;;;;;29.11;45.61;100824.81;5066947;27;45461;-65
2023/08/24 11:09:13;;;;;;;;;19.25;17.50;;;;;29.01;46.17;100812.97;5065107;27;45540;-63
2023/08/24 11:11:40;;;;;;;;;15.75;15.75;;;;;28.98;46.20;100821.31;5067513;27;46084;-63